createdAt,value
2022-08-23T00:02:35.483Z,19.76
2022-08-23T00:07:43.020Z,19.60
2022-08-23T00:12:46.267Z,19.58
2022-08-23T00:17:48.214Z,19.57
2022-08-23T00:22:50.270Z,19.77
2022-08-23T00:27:52.562Z,19.91
2022-08-23T00:32:57.877Z,20.01
2022-08-23T00:38:33.231Z,19.80
2022-08-23T00:43:34.640Z,19.46
2022-08-23T00:48:38.354Z,19.52
2022-08-23T00:53:50.571Z,19.36
2022-08-23T00:58:52.705Z,19.20
2022-08-23T01:04:05.114Z,19.01
2022-08-23T01:09:11.187Z,19.21
2022-08-23T01:14:22.112Z,19.34
2022-08-23T01:19:35.739Z,19.24
2022-08-23T01:25:07.814Z,19.20
2022-08-23T01:30:01.943Z,18.88
2022-08-23T01:35:04.436Z,18.81
2022-08-23T01:40:06.880Z,18.72
2022-08-23T01:45:14.174Z,18.71
2022-08-23T01:50:16.482Z,18.68
2022-08-23T01:55:18.755Z,18.65
2022-08-23T02:00:27.222Z,18.48
2022-08-23T02:05:31.408Z,18.38
2022-08-23T02:10:33.111Z,18.20
2022-08-23T02:15:34.760Z,18.25
2022-08-23T02:20:36.970Z,18.38
2022-08-23T02:25:39.355Z,18.44
2022-08-23T02:30:41.397Z,18.51
2022-08-23T02:35:45.691Z,18.73
2022-08-23T02:40:47.918Z,18.48
2022-08-23T02:45:55.420Z,18.24
2022-08-23T02:51:03.854Z,18.37
2022-08-23T02:56:06.351Z,18.41
2022-08-23T03:01:23.186Z,18.38
2022-08-23T03:06:26.817Z,18.31
2022-08-23T03:11:28.822Z,18.10
2022-08-23T03:16:30.890Z,18.02
2022-08-23T03:21:32.606Z,17.94
2022-08-23T03:26:35.004Z,17.81
2022-08-23T03:31:37.139Z,17.80
2022-08-23T03:36:46.388Z,17.86
2022-08-23T03:41:48.902Z,17.87
2022-08-23T03:46:50.576Z,17.80
2022-08-23T03:51:52.213Z,17.76
2022-08-23T03:57:07.454Z,17.72
2022-08-23T04:02:10.534Z,17.59
2022-08-23T04:07:12.382Z,17.46
2022-08-23T04:12:17.538Z,17.42
2022-08-23T04:17:20.865Z,17.43
2022-08-23T04:22:23.694Z,17.44
2022-08-23T04:27:25.860Z,17.38
2022-08-23T04:32:28.686Z,17.44
2022-08-23T04:37:32.932Z,17.50
2022-08-23T04:42:35.426Z,17.50
2022-08-23T04:47:37.263Z,17.49
2022-08-23T04:52:39.272Z,17.48
2022-08-23T04:57:41.260Z,17.58
2022-08-23T05:02:44.269Z,17.67
2022-08-23T05:07:45.914Z,17.78
2022-08-23T05:12:48.485Z,18.35
2022-08-23T05:17:52.329Z,18.78
2022-08-23T05:22:54.651Z,19.37
2022-08-23T05:28:07.813Z,20.05
2022-08-23T05:33:09.449Z,20.46
2022-08-23T05:38:11.511Z,20.86
2022-08-23T05:43:14.143Z,21.30
2022-08-23T05:48:15.817Z,22.09
2022-08-23T05:53:23.923Z,22.29
2022-08-23T05:58:26.874Z,22.67
2022-08-23T06:03:28.447Z,22.62
2022-08-23T06:08:31.127Z,23.00
2022-08-23T06:13:34.557Z,22.71
2022-08-23T06:18:36.519Z,22.87
2022-08-23T06:23:57.825Z,23.26
2022-08-23T06:29:05.663Z,24.08
2022-08-23T06:34:10.062Z,23.59
2022-08-23T06:39:36.773Z,23.98
2022-08-23T06:44:57.964Z,24.04
2022-08-23T06:50:11.900Z,25.15
2022-08-23T06:55:32.036Z,25.75
2022-08-23T07:01:48.719Z,26.51
2022-08-23T07:07:11.129Z,26.08
2022-08-23T07:12:13.476Z,25.49
2022-08-23T07:17:17.564Z,26.33
2022-08-23T07:22:19.748Z,25.90
2022-08-23T07:27:21.351Z,27.57
2022-08-23T07:32:33.167Z,28.05
2022-08-23T07:37:45.085Z,26.98
2022-08-23T07:42:47.774Z,27.44
2022-08-23T07:47:50.649Z,27.53
2022-08-23T07:52:53.246Z,27.76
2022-08-23T07:57:55.073Z,28.30
2022-08-23T08:03:12.495Z,29.39
2022-08-23T08:08:37.137Z,27.34
2022-08-23T08:13:41.082Z,28.83
2022-08-23T08:18:44.228Z,29.84
2022-08-23T08:24:07.621Z,30.16
2022-08-23T08:29:18.142Z,29.93
2022-08-23T08:34:20.678Z,30.60
2022-08-23T08:39:26.258Z,30.32
2022-08-23T08:44:37.179Z,30.49
2022-08-23T08:49:48.742Z,31.62
2022-08-23T08:55:12.357Z,31.25
2022-08-23T09:00:26.196Z,31.57
2022-08-23T09:05:33.280Z,31.57
2022-08-23T09:10:45.865Z,32.95
2022-08-23T09:16:03.170Z,32.91
2022-08-23T09:21:08.138Z,30.99
2022-08-23T09:26:36.442Z,31.46
2022-08-23T09:31:38.166Z,32.87
2022-08-23T09:36:39.986Z,31.86
2022-08-23T09:41:41.866Z,32.79
2022-08-23T09:46:45.035Z,33.20
2022-08-23T09:51:54.162Z,32.46
2022-08-23T09:57:09.102Z,32.45
2022-08-23T10:02:30.098Z,34.23
2022-08-23T10:07:43.854Z,34.04
2022-08-23T10:12:50.662Z,32.85
2022-08-23T10:18:34.037Z,34.31
2022-08-23T10:24:05.617Z,35.56
2022-08-23T10:29:35.731Z,34.63
2022-08-23T10:35:16.012Z,36.41
2022-08-23T10:40:25.621Z,37.69
2022-08-23T10:45:33.091Z,37.13
2022-08-23T10:51:01.842Z,34.91
2022-08-23T10:56:04.787Z,35.72
2022-08-23T11:01:15.851Z,35.01
2022-08-23T11:06:27.562Z,35.83
2022-08-23T11:11:58.861Z,36.79
2022-08-23T11:17:25.269Z,36.12
2022-08-23T11:22:31.229Z,35.68
2022-08-23T11:27:43.301Z,35.80
2022-08-23T11:32:49.759Z,34.42
2022-08-23T11:37:56.470Z,34.80
2022-08-23T11:43:07.409Z,37.24
2022-08-23T11:48:36.179Z,36.37
2022-08-23T11:53:40.656Z,34.67
2022-08-23T11:59:14.477Z,35.61
2022-08-23T12:04:47.901Z,34.90
2022-08-23T12:09:52.085Z,35.94
2022-08-23T12:14:57.553Z,34.44
2022-08-23T12:19:59.109Z,36.24
2022-08-23T12:25:06.013Z,38.35
2022-08-23T12:30:29.033Z,35.90
2022-08-23T12:35:49.307Z,34.67
2022-08-23T12:40:54.446Z,35.98
2022-08-23T12:45:58.103Z,36.29
2022-08-23T12:51:01.151Z,36.52
2022-08-23T12:56:32.009Z,36.80
2022-08-23T13:01:37.539Z,37.53
2022-08-23T13:07:02.744Z,38.30
2022-08-23T13:12:07.329Z,37.80
2022-08-23T13:17:27.281Z,36.09
2022-08-23T13:22:31.040Z,36.76
2022-08-23T13:27:44.915Z,35.88
2022-08-23T13:33:07.858Z,34.94
2022-08-23T13:38:20.521Z,34.79
2022-08-23T13:43:49.760Z,35.00
2022-08-23T13:49:00.936Z,34.53
2022-08-23T13:54:06.135Z,36.45
2022-08-23T13:59:31.338Z,35.35
2022-08-23T14:04:34.585Z,35.20
2022-08-23T14:09:37.804Z,37.44
2022-08-23T14:14:40.660Z,38.23
2022-08-23T14:25:05.949Z,36.63
2022-08-23T14:30:10.588Z,37.27
2022-08-23T14:35:12.218Z,37.48
2022-08-23T14:40:14.872Z,37.53
2022-08-23T14:45:18.185Z,36.46
2022-08-23T14:50:19.864Z,36.99
2022-08-23T14:55:24.838Z,37.53
2022-08-23T15:00:26.787Z,34.32
2022-08-23T15:05:29.149Z,34.25
2022-08-23T15:15:53.468Z,36.57
2022-08-23T15:20:55.123Z,37.88
2022-08-23T15:25:56.828Z,38.12
2022-08-23T15:30:58.510Z,37.35
2022-08-23T15:36:00.593Z,38.20
2022-08-23T15:41:03.491Z,36.70
2022-08-23T15:46:07.441Z,35.81
2022-08-23T15:51:10.289Z,35.08
2022-08-23T15:56:18.552Z,36.34
2022-08-23T16:01:23.990Z,36.87
2022-08-23T16:06:27.396Z,36.42
2022-08-23T16:11:28.981Z,37.22
2022-08-23T16:16:36.604Z,37.51
2022-08-23T16:21:39.044Z,37.06
2022-08-23T16:26:45.303Z,36.38
2022-08-23T16:31:47.677Z,36.33
2022-08-23T16:36:55.685Z,35.93
2022-08-23T16:41:57.314Z,35.72
2022-08-23T16:46:59.677Z,35.83
2022-08-23T16:52:02.183Z,34.85
2022-08-23T16:57:04.288Z,34.87
2022-08-23T17:02:10.930Z,34.78
2022-08-23T17:07:12.829Z,34.53
2022-08-23T17:12:15.217Z,34.22
2022-08-23T17:17:17.063Z,33.82
2022-08-23T17:22:18.970Z,33.15
2022-08-23T17:27:20.579Z,32.82
2022-08-23T17:32:22.573Z,32.33
2022-08-23T17:37:24.166Z,32.13
2022-08-23T17:42:26.031Z,31.88
2022-08-23T17:47:27.568Z,31.64
2022-08-23T17:52:29.961Z,31.41
2022-08-23T17:57:32.391Z,31.14
2022-08-23T18:02:34.175Z,30.90
2022-08-23T18:07:36.216Z,30.69
2022-08-23T18:12:40.933Z,30.57
2022-08-23T18:17:42.770Z,30.34
2022-08-23T18:22:44.489Z,30.13
2022-08-23T18:27:46.203Z,29.89
2022-08-23T18:32:47.797Z,29.64
2022-08-23T18:37:51.846Z,29.45
2022-08-23T18:42:54.319Z,29.24
2022-08-23T18:47:55.928Z,29.03
2022-08-23T18:52:57.588Z,28.94
2022-08-23T18:57:59.267Z,28.63
2022-08-23T19:03:03.252Z,28.27
2022-08-23T19:08:05.364Z,28.10
2022-08-23T19:13:07.873Z,28.05
2022-08-23T19:18:12.492Z,27.93
2022-08-23T19:23:14.130Z,27.89
2022-08-23T19:28:16.460Z,27.87
2022-08-23T19:33:19.245Z,27.66
2022-08-23T19:38:20.813Z,27.57
2022-08-23T19:43:22.961Z,27.35
2022-08-23T19:48:24.632Z,27.13
2022-08-23T19:53:26.291Z,26.93
2022-08-23T19:58:27.962Z,26.82
2022-08-23T20:03:29.525Z,26.94
2022-08-23T20:08:31.085Z,26.71
2022-08-23T20:13:32.657Z,26.41
2022-08-23T20:18:34.283Z,26.23
2022-08-23T20:23:36.041Z,26.07
2022-08-23T20:28:37.631Z,25.91
2022-08-23T20:33:41.375Z,25.79
2022-08-23T20:38:47.072Z,25.44
2022-08-23T20:43:48.712Z,25.41
2022-08-23T20:48:51.614Z,25.27
2022-08-23T20:53:53.707Z,25.25
2022-08-23T20:58:57.561Z,25.04
2022-08-23T21:04:00.021Z,24.91
2022-08-23T21:09:01.606Z,24.74
2022-08-23T21:14:04.636Z,24.64
2022-08-23T21:19:06.617Z,24.49
2022-08-23T21:24:10.095Z,24.37
2022-08-23T21:29:11.747Z,24.31
2022-08-23T21:34:13.336Z,24.39
2022-08-23T21:39:14.929Z,24.27
2022-08-23T21:44:19.715Z,24.15
2022-08-23T21:49:21.405Z,24.01
2022-08-23T21:54:23.172Z,23.89
2022-08-23T21:59:24.858Z,23.81
2022-08-23T22:04:26.539Z,23.97
2022-08-23T22:09:31.576Z,23.78
2022-08-23T22:14:33.870Z,23.55
2022-08-23T22:19:35.596Z,23.48
2022-08-23T22:24:37.813Z,23.38
2022-08-23T22:29:39.868Z,23.30
2022-08-23T22:34:44.352Z,23.27
2022-08-23T22:39:46.209Z,23.21
2022-08-23T22:44:47.873Z,23.30
2022-08-23T22:49:49.467Z,23.32
2022-08-23T22:54:51.107Z,23.28
2022-08-23T22:59:52.777Z,23.22
2022-08-23T23:04:56.707Z,22.94
2022-08-23T23:09:58.361Z,22.76
2022-08-23T23:15:00.032Z,22.69
2022-08-23T23:20:02.253Z,22.66
2022-08-23T23:25:04.304Z,22.52
2022-08-23T23:30:06.469Z,21.55
2022-08-23T23:35:09.289Z,21.65
2022-08-23T23:40:12.114Z,21.68
2022-08-23T23:45:15.407Z,21.80
2022-08-23T23:50:17.951Z,21.93
2022-08-23T23:55:21.540Z,22.01
